Time,TemperatureF,DewpointF,PressureIn,WindDirection,WindDirectionDegrees,WindSpeedMPH,WindSpeedGustMPH,Humidity,HourlyPrecipIn,Conditions,Clouds,dailyrainin,SoftwareType,DateUTC
2013-01-31 00:09:00,71.1,69.0,29.97,South,176,5.0,10.0,92,0.00,,,0.00,weatherlink.com 1.10,2013-01-31 05:09:00,
2013-01-31 00:24:00,71.0,69.0,29.96,SSE,158,4.0,9.0,93,0.00,,,0.00,weatherlink.com 1.10,2013-01-31 05:24:00,
2013-01-31 00:38:00,70.9,69.0,29.96,South,171,3.0,10.0,93,0.00,,,0.00,weatherlink.com 1.10,2013-01-31 05:38:00,
2013-01-31 00:53:00,70.8,69.0,29.95,SSE,160,3.0,11.0,93,0.00,,,0.00,weatherlink.com 1.10,2013-01-31 05:53:00,
2013-01-31 01:08:00,70.7,69.0,29.95,South,182,9.0,9.0,94,0.00,,,0.00,weatherlink.com 1.10,2013-01-31 06:08:00,
2013-01-31 01:24:00,70.7,69.0,29.95,South,169,5.0,10.0,94,0.00,,,0.00,weatherlink.com 1.10,2013-01-31 06:24:00,
2013-01-31 01:39:00,70.7,69.0,29.95,South,170,8.0,9.0,94,0.00,,,0.00,weatherlink.com 1.10,2013-01-31 06:39:00,
2013-01-31 01:56:00,70.6,69.0,29.94,SSE,167,9.0,9.0,94,0.00,,,0.00,weatherlink.com 1.10,2013-01-31 06:56:00,
2013-01-31 02:10:00,70.7,69.0,29.94,South,173,4.0,9.0,94,0.00,,,0.00,weatherlink.com 1.10,2013-01-31 07:10:00,
2013-01-31 02:25:00,70.8,69.0,29.94,South,169,4.0,9.0,94,0.00,,,0.00,weatherlink.com 1.10,2013-01-31 07:25:00,
2013-01-31 02:40:00,70.7,69.0,29.94,South,180,5.0,10.0,94,0.00,,,0.00,weatherlink.com 1.10,2013-01-31 07:40:00,
2013-01-31 02:55:00,70.7,69.0,29.93,SSE,168,3.0,9.0,94,0.00,,,0.00,weatherlink.com 1.10,2013-01-31 07:55:00,
2013-01-31 03:09:00,70.7,69.0,29.93,SSE,166,5.0,9.0,94,0.00,,,0.00,weatherlink.com 1.10,2013-01-31 08:09:00,
2013-01-31 03:24:00,70.6,69.0,29.93,SSE,166,7.0,8.0,94,0.00,,,0.00,weatherlink.com 1.10,2013-01-31 08:24:00,
2013-01-31 03:39:00,70.6,69.0,29.93,SSE,167,5.0,7.0,94,0.00,,,0.00,weatherlink.com 1.10,2013-01-31 08:39:00,
2013-01-31 03:55:00,70.6,69.0,29.93,South,179,4.0,9.0,95,0.00,,,0.00,weatherlink.com 1.10,2013-01-31 08:55:00,
2013-01-31 04:10:00,70.6,69.0,29.93,SSE,163,4.0,9.0,95,0.00,,,0.00,weatherlink.com 1.10,2013-01-31 09:10:00,
2013-01-31 04:25:00,70.6,69.0,29.93,SSE,168,2.0,8.0,95,0.00,,,0.00,weatherlink.com 1.10,2013-01-31 09:25:00,
2013-01-31 04:40:00,67.8,66.0,29.96,NW,314,4.0,20.0,93,0.00,,,0.00,weatherlink.com 1.10,2013-01-31 09:40:00,
2013-01-31 04:55:00,65.9,64.0,29.97,NW,311,2.0,12.0,92,0.00,,,0.00,weatherlink.com 1.10,2013-01-31 09:55:00,
2013-01-31 05:10:00,64.0,62.0,29.99,WNW,301,6.0,18.0,92,0.02,,,0.02,weatherlink.com 1.10,2013-01-31 10:10:00,
2013-01-31 05:26:00,63.2,61.0,30.00,WNW,292,7.0,11.0,92,0.02,,,0.02,weatherlink.com 1.10,2013-01-31 10:26:00,
2013-01-31 05:41:00,61.8,60.0,30.00,WNW,293,2.0,14.0,92,0.04,,,0.04,weatherlink.com 1.10,2013-01-31 10:41:00,
2013-01-31 05:57:00,61.5,60.0,30.02,NW,311,4.0,11.0,93,0.04,,,0.04,weatherlink.com 1.10,2013-01-31 10:57:00,
2013-01-31 06:12:00,61.2,59.0,30.02,NNW,342,3.0,10.0,93,0.04,,,0.06,weatherlink.com 1.10,2013-01-31 11:12:00,
2013-01-31 06:27:00,60.9,59.0,30.03,NW,313,1.0,13.0,94,0.05,,,0.08,weatherlink.com 1.10,2013-01-31 11:27:00,
2013-01-31 06:42:00,60.7,59.0,30.03,ENE,60,0.0,11.0,94,0.06,,,0.10,weatherlink.com 1.10,2013-01-31 11:42:00,
2013-01-31 06:56:00,60.1,58.0,30.04,NW,325,0.0,8.0,94,0.07,,,0.11,weatherlink.com 1.10,2013-01-31 11:56:00,
2013-01-31 07:12:00,60.1,58.0,30.06,NW,304,1.0,9.0,94,0.06,,,0.12,weatherlink.com 1.10,2013-01-31 12:12:00,
2013-01-31 07:27:00,60.0,58.0,30.07,North,355,1.0,6.0,94,0.06,,,0.14,weatherlink.com 1.10,2013-01-31 12:27:00,
2013-01-31 07:42:00,60.0,58.0,30.07,NNW,331,1.0,7.0,94,0.04,,,0.14,weatherlink.com 1.10,2013-01-31 12:42:00,
2013-01-31 07:57:00,60.1,58.0,30.08,NNW,333,1.0,7.0,94,0.03,,,0.14,weatherlink.com 1.10,2013-01-31 12:57:00,
2013-01-31 08:12:00,60.1,58.0,30.08,North,5,0.0,8.0,94,0.02,,,0.14,weatherlink.com 1.10,2013-01-31 13:12:00,
2013-01-31 08:28:00,60.2,59.0,30.09,NNW,347,2.0,6.0,94,0.00,,,0.14,weatherlink.com 1.10,2013-01-31 13:28:00,
2013-01-31 08:43:00,60.5,59.0,30.09,NNW,345,3.0,5.0,94,0.01,,,0.15,weatherlink.com 1.10,2013-01-31 13:43:00,
2013-01-31 08:58:00,60.8,59.0,30.10,NW,321,0.0,6.0,95,0.01,,,0.15,weatherlink.com 1.10,2013-01-31 13:58:00,
2013-01-31 09:13:00,61.1,60.0,30.11,WNW,298,0.0,6.0,95,0.01,,,0.15,weatherlink.com 1.10,2013-01-31 14:13:00,
2013-01-31 09:28:00,61.2,60.0,30.11,NNW,342,1.0,5.0,94,0.01,,,0.15,weatherlink.com 1.10,2013-01-31 14:28:00,
2013-01-31 09:44:00,61.3,60.0,30.11,NNW,328,1.0,5.0,94,0.01,,,0.16,weatherlink.com 1.10,2013-01-31 14:44:00,
2013-01-31 09:58:00,61.3,60.0,30.12,NNW,331,0.0,5.0,94,0.01,,,0.16,weatherlink.com 1.10,2013-01-31 14:58:00,
2013-01-31 10:13:00,61.3,59.0,30.12,North,355,2.0,7.0,93,0.01,,,0.16,weatherlink.com 1.10,2013-01-31 15:13:00,
2013-01-31 10:28:00,61.7,60.0,30.13,NW,313,1.0,4.0,93,0.01,,,0.16,weatherlink.com 1.10,2013-01-31 15:28:00,
2013-01-31 10:44:00,62.2,60.0,30.13,West,277,1.0,6.0,92,0.00,,,0.16,weatherlink.com 1.10,2013-01-31 15:44:00,
2013-01-31 10:59:00,62.3,60.0,30.13,NW,310,4.0,6.0,92,0.00,,,0.16,weatherlink.com 1.10,2013-01-31 15:59:00,
2013-01-31 11:14:00,63.6,61.0,30.13,NW,323,2.0,5.0,91,0.00,,,0.16,weatherlink.com 1.10,2013-01-31 16:14:00,
2013-01-31 11:29:00,64.4,60.0,30.13,ENE,71,3.0,5.0,86,0.00,,,0.16,weatherlink.com 1.10,2013-01-31 16:29:00,
2013-01-31 11:44:00,64.3,60.0,30.13,NW,320,0.0,4.0,85,0.00,,,0.16,weatherlink.com 1.10,2013-01-31 16:44:00,
2013-01-31 11:59:00,64.3,60.0,30.12,NNW,343,1.0,5.0,85,0.00,,,0.16,weatherlink.com 1.10,2013-01-31 16:59:00,
2013-01-31 12:15:00,64.7,60.0,30.11,NNW,328,0.0,4.0,84,0.00,,,0.16,weatherlink.com 1.10,2013-01-31 17:15:00,
2013-01-31 12:30:00,65.6,60.0,30.12,NNW,340,1.0,3.0,83,0.00,,,0.16,weatherlink.com 1.10,2013-01-31 17:30:00,
2013-01-31 12:44:00,67.1,60.0,30.11,NNW,336,0.0,5.0,79,0.00,,,0.16,weatherlink.com 1.10,2013-01-31 17:44:00,
2013-01-31 12:59:00,67.5,60.0,30.10,NW,304,1.0,8.0,78,0.00,,,0.16,weatherlink.com 1.10,2013-01-31 17:59:00,
2013-01-31 13:14:00,68.6,60.0,30.09,WNW,300,1.0,7.0,74,0.00,,,0.16,weatherlink.com 1.10,2013-01-31 18:14:00,
2013-01-31 13:30:00,69.1,61.0,30.09,NW,306,0.0,7.0,74,0.00,,,0.16,weatherlink.com 1.10,2013-01-31 18:30:00,
2013-01-31 13:44:00,69.5,60.0,30.08,NW,306,3.0,7.0,71,0.00,,,0.16,weatherlink.com 1.10,2013-01-31 18:44:00,
2013-01-31 14:01:00,71.6,60.0,30.08,WNW,286,1.0,9.0,68,0.00,,,0.16,weatherlink.com 1.10,2013-01-31 19:01:00,
2013-01-31 14:17:00,72.7,59.0,30.08,WNW,293,5.0,12.0,63,0.00,,,0.16,weatherlink.com 1.10,2013-01-31 19:17:00,
2013-01-31 14:32:00,72.5,59.0,30.08,WNW,290,16.0,16.0,63,0.00,,,0.16,weatherlink.com 1.10,2013-01-31 19:32:00,
2013-01-31 14:47:00,70.0,58.0,30.08,NW,313,10.0,13.0,65,0.00,,,0.16,weatherlink.com 1.10,2013-01-31 19:47:00,
2013-01-31 15:02:00,70.4,58.0,30.09,NW,311,8.0,13.0,65,0.00,,,0.16,weatherlink.com 1.10,2013-01-31 20:02:00,
2013-01-31 15:16:00,68.7,57.0,30.09,NW,311,8.0,14.0,66,0.00,,,0.16,weatherlink.com 1.10,2013-01-31 20:16:00,
2013-01-31 15:31:00,68.3,57.0,30.09,SW,227,4.0,11.0,67,0.00,,,0.16,weatherlink.com 1.10,2013-01-31 20:31:00,
2013-01-31 15:46:00,67.6,57.0,30.09,WSW,250,9.0,13.0,68,0.00,,,0.16,weatherlink.com 1.10,2013-01-31 20:46:00,
2013-01-31 16:01:00,67.4,56.0,30.09,WNW,290,5.0,14.0,68,0.00,,,0.16,weatherlink.com 1.10,2013-01-31 21:01:00,
2013-01-31 16:16:00,67.4,55.0,30.09,WSW,252,6.0,11.0,64,0.00,,,0.16,weatherlink.com 1.10,2013-01-31 21:16:00,
2013-01-31 16:31:00,67.4,54.0,30.09,WNW,290,5.0,9.0,62,0.00,,,0.16,weatherlink.com 1.10,2013-01-31 21:31:00,
2013-01-31 16:46:00,67.4,50.0,30.10,NNW,327,5.0,14.0,53,0.00,,,0.16,weatherlink.com 1.10,2013-01-31 21:46:00,
2013-01-31 17:01:00,67.0,49.0,30.10,WNW,302,6.0,9.0,53,0.00,,,0.16,weatherlink.com 1.10,2013-01-31 22:01:00,
2013-01-31 17:16:00,66.3,49.0,30.11,West,273,1.0,9.0,55,0.00,,,0.16,weatherlink.com 1.10,2013-01-31 22:16:00,
2013-01-31 17:46:00,64.5,43.0,30.11,WNW,286,4.0,13.0,46,0.00,,,0.16,weatherlink.com 1.10,2013-01-31 22:46:00,
2013-01-31 18:01:00,63.5,42.0,30.12,WNW,283,1.0,10.0,45,0.00,,,0.16,weatherlink.com 1.10,2013-01-31 23:01:00,
2013-01-31 18:17:00,62.6,42.0,30.12,West,281,1.0,7.0,47,0.00,,,0.16,weatherlink.com 1.10,2013-01-31 23:17:00,
2013-01-31 18:32:00,61.9,42.0,30.13,WNW,302,3.0,8.0,49,0.00,,,0.16,weatherlink.com 1.10,2013-01-31 23:32:00,
2013-01-31 18:47:00,61.3,44.0,30.13,NW,305,1.0,5.0,53,0.00,,,0.16,weatherlink.com 1.10,2013-01-31 23:47:00,
2013-01-31 19:02:00,60.6,40.0,30.14,NW,317,1.0,10.0,46,0.00,,,0.16,weatherlink.com 1.10,2013-02-01 00:02:00,
2013-01-31 19:17:00,59.9,38.0,30.14,West,277,1.0,7.0,45,0.00,,,0.16,weatherlink.com 1.10,2013-02-01 00:17:00,
2013-01-31 19:32:00,59.3,39.0,30.14,WNW,298,3.0,11.0,47,0.00,,,0.16,weatherlink.com 1.10,2013-02-01 00:32:00,
2013-01-31 19:47:00,58.7,40.0,30.15,NW,310,4.0,11.0,50,0.00,,,0.16,weatherlink.com 1.10,2013-02-01 00:47:00,
2013-01-31 20:02:00,58.0,39.0,30.16,WNW,297,2.0,8.0,50,0.00,,,0.16,weatherlink.com 1.10,2013-02-01 01:02:00,
2013-01-31 20:18:00,57.5,39.0,30.17,WNW,298,2.0,10.0,51,0.00,,,0.16,weatherlink.com 1.10,2013-02-01 01:18:00,
2013-01-31 20:33:00,57.1,40.0,30.18,West,281,3.0,12.0,53,0.00,,,0.16,weatherlink.com 1.10,2013-02-01 01:33:00,
2013-01-31 20:49:00,56.7,40.0,30.18,NW,319,1.0,11.0,54,0.00,,,0.16,weatherlink.com 1.10,2013-02-01 01:49:00,
2013-01-31 21:03:00,56.3,40.0,30.18,NNW,329,3.0,7.0,55,0.00,,,0.16,weatherlink.com 1.10,2013-02-01 02:03:00,
2013-01-31 21:18:00,55.9,40.0,30.18,WNW,285,1.0,6.0,56,0.00,,,0.16,weatherlink.com 1.10,2013-02-01 02:18:00,
2013-01-31 21:33:00,55.4,40.0,30.19,NNW,345,5.0,10.0,56,0.00,,,0.16,weatherlink.com 1.10,2013-02-01 02:33:00,
2013-01-31 21:48:00,55.1,39.0,30.19,WNW,284,2.0,6.0,56,0.00,,,0.16,weatherlink.com 1.10,2013-02-01 02:48:00,
2013-01-31 22:03:00,54.8,39.0,30.19,NNW,328,1.0,8.0,56,0.00,,,0.16,weatherlink.com 1.10,2013-02-01 03:03:00,
2013-01-31 22:19:00,54.5,39.0,30.20,NW,313,0.0,9.0,57,0.00,,,0.16,weatherlink.com 1.10,2013-02-01 03:19:00,
2013-01-31 22:34:00,54.2,39.0,30.20,NW,309,2.0,8.0,57,0.00,,,0.16,weatherlink.com 1.10,2013-02-01 03:34:00,
2013-01-31 22:50:00,53.9,39.0,30.21,NNW,340,1.0,8.0,58,0.00,,,0.16,weatherlink.com 1.10,2013-02-01 03:50:00,
2013-01-31 23:05:00,53.5,39.0,30.21,NW,319,1.0,7.0,58,0.00,,,0.16,weatherlink.com 1.10,2013-02-01 04:05:00,
2013-01-31 23:19:00,53.3,39.0,30.21,NNW,344,1.0,8.0,58,0.00,,,0.16,weatherlink.com 1.10,2013-02-01 04:19:00,
2013-01-31 23:34:00,53.2,39.0,30.21,NW,315,0.0,5.0,60,0.00,,,0.16,weatherlink.com 1.10,2013-02-01 04:34:00,
2013-01-31 23:49:00,52.8,40.0,30.21,NW,324,0.0,6.0,62,0.00,,,0.16,weatherlink.com 1.10,2013-02-01 04:49:00,